RJEO(METAR)
03/23 14:00
RJEO 230500Z 32014KT 9999 FEW025 SCT040 03/M04 Q1014 RMK A2995=
戻る
トップページへ戻る
IMOC Co,.Ltd.